createdAt,value
2019-06-26T00:00:19.056Z,47.03
2019-06-26T00:01:23.641Z,46.87
2019-06-26T00:02:28.290Z,46.59
2019-06-26T00:03:32.645Z,47.04
2019-06-26T00:04:37.282Z,46.74
2019-06-26T00:05:41.681Z,46.59
2019-06-26T00:06:47.676Z,46.28
2019-06-26T00:07:53.197Z,46.33
2019-06-26T00:08:57.785Z,46.73
2019-06-26T00:10:02.293Z,47.33
2019-06-26T00:11:07.065Z,46.75
2019-06-26T00:12:11.452Z,47.08
2019-06-26T00:13:25.587Z,47.12
2019-06-26T00:14:22.089Z,47.25
2019-06-26T00:15:26.701Z,47.68
2019-06-26T00:16:31.116Z,47.79
2019-06-26T00:17:35.853Z,48.23
2019-06-26T00:18:40.216Z,48.20
2019-06-26T00:19:44.808Z,48.27
2019-06-26T00:20:49.245Z,47.52
2019-06-26T00:21:53.816Z,47.50
2019-06-26T00:22:58.459Z,47.83
2019-06-26T00:24:03.085Z,47.94
2019-06-26T00:25:07.530Z,48.26
2019-06-26T00:26:12.095Z,48.51
2019-06-26T00:27:16.647Z,48.55
2019-06-26T00:28:22.305Z,48.83
2019-06-26T00:29:26.661Z,49.27
2019-06-26T00:30:31.241Z,49.73
2019-06-26T00:31:35.618Z,50.10
2019-06-26T00:32:40.233Z,50.29
2019-06-26T00:33:44.589Z,50.75
2019-06-26T00:34:50.263Z,50.78
2019-06-26T00:35:54.673Z,50.59
2019-06-26T00:36:59.248Z,50.61
2019-06-26T00:38:04.641Z,50.41
2019-06-26T00:39:09.217Z,50.68
2019-06-26T00:40:13.680Z,50.66
2019-06-26T00:41:18.564Z,50.90
2019-06-26T00:42:22.921Z,51.10
2019-06-26T00:43:41.419Z,50.99
2019-06-26T00:44:33.581Z,50.65
2019-06-26T00:45:38.268Z,50.57
2019-06-26T00:46:42.624Z,50.62
2019-06-26T00:47:47.198Z,50.64
2019-06-26T00:48:51.555Z,50.72
2019-06-26T00:49:56.200Z,50.87
2019-06-26T00:51:00.915Z,50.64
2019-06-26T00:52:05.474Z,50.60
2019-06-26T00:53:09.839Z,50.96
2019-06-26T00:54:14.423Z,50.68
2019-06-26T00:55:18.784Z,50.54
2019-06-26T00:56:23.454Z,50.38
2019-06-26T00:57:27.805Z,50.92
2019-06-26T00:58:32.615Z,50.78
2019-06-26T00:59:37.058Z,50.50
2019-06-26T01:00:47.487Z,50.35
2019-06-26T01:01:52.787Z,50.39
2019-06-26T01:02:58.462Z,49.97
2019-06-26T01:04:04.256Z,49.81
2019-06-26T01:05:10.085Z,49.76
2019-06-26T01:06:32.210Z,49.91
2019-06-26T01:07:36.409Z,50.04
2019-06-26T01:08:41.165Z,50.15
2019-06-26T01:09:46.404Z,50.58
2019-06-26T01:10:51.236Z,50.47
2019-06-26T01:11:55.407Z,50.77
2019-06-26T01:13:00.228Z,50.86
2019-06-26T01:14:04.500Z,50.91
2019-06-26T01:15:10.303Z,50.75
2019-06-26T01:16:14.590Z,50.70
2019-06-26T01:17:19.379Z,50.43
2019-06-26T01:18:23.561Z,50.30
2019-06-26T01:19:28.313Z,50.09
2019-06-26T01:20:32.489Z,50.38
2019-06-26T01:21:37.315Z,50.36
2019-06-26T01:22:42.617Z,50.20
2019-06-26T01:23:47.479Z,50.22
2019-06-26T01:24:51.649Z,50.22
2019-06-26T01:25:56.409Z,50.19
2019-06-26T01:27:00.729Z,50.21
2019-06-26T01:28:05.501Z,50.16
2019-06-26T01:29:09.666Z,50.27
2019-06-26T01:30:15.352Z,50.55
2019-06-26T01:31:19.544Z,50.42
2019-06-26T01:32:24.325Z,50.69
2019-06-26T01:33:28.529Z,50.54
2019-06-26T01:34:33.310Z,50.66
2019-06-26T01:35:37.476Z,50.79
2019-06-26T01:36:42.261Z,50.95
2019-06-26T01:37:46.425Z,51.11
2019-06-26T01:38:51.189Z,50.98
2019-06-26T01:39:55.357Z,51.00
2019-06-26T01:41:00.126Z,51.08
2019-06-26T01:42:05.122Z,51.34
2019-06-26T01:43:10.970Z,51.53
2019-06-26T01:44:15.733Z,51.77
2019-06-26T01:45:20.661Z,51.63
2019-06-26T01:46:24.840Z,51.82
2019-06-26T01:47:30.940Z,51.92
2019-06-26T01:48:35.123Z,51.85
2019-06-26T01:49:39.975Z,51.94
2019-06-26T01:50:44.291Z,51.93
2019-06-26T01:51:49.047Z,52.00
2019-06-26T01:52:53.304Z,51.92
2019-06-26T01:53:58.226Z,51.91
2019-06-26T01:55:02.607Z,51.96
2019-06-26T01:56:07.431Z,51.92
2019-06-26T01:57:11.689Z,51.96
2019-06-26T01:58:16.583Z,52.07
2019-06-26T01:59:20.762Z,52.23
2019-06-26T02:00:25.555Z,52.24
2019-06-26T02:01:29.824Z,52.21
2019-06-26T02:02:34.607Z,52.25
2019-06-26T02:03:38.828Z,52.52
2019-06-26T02:04:43.593Z,52.28
2019-06-26T02:05:47.865Z,52.42
2019-06-26T02:06:52.623Z,52.69
2019-06-26T02:07:56.798Z,52.50
2019-06-26T02:09:01.626Z,52.53
2019-06-26T02:10:08.159Z,52.38
2019-06-26T02:11:12.918Z,52.23
2019-06-26T02:12:17.148Z,52.04
2019-06-26T02:13:21.988Z,52.05
2019-06-26T02:14:31.054Z,52.27
2019-06-26T02:15:32.646Z,52.10
2019-06-26T02:16:36.857Z,51.93
2019-06-26T02:17:41.617Z,51.80
2019-06-26T02:18:49.084Z,51.66
2019-06-26T02:19:53.916Z,51.64
2019-06-26T02:20:58.264Z,51.66
2019-06-26T02:22:02.999Z,51.76
2019-06-26T02:23:07.167Z,51.82
2019-06-26T02:24:12.010Z,51.77
2019-06-26T02:25:16.205Z,51.73
2019-06-26T02:26:21.121Z,51.45
2019-06-26T02:27:25.771Z,51.19
2019-06-26T02:28:30.635Z,51.17
2019-06-26T02:29:34.882Z,51.26
2019-06-26T02:30:40.003Z,51.06
2019-06-26T02:31:44.325Z,50.99
2019-06-26T02:32:49.160Z,50.89
2019-06-26T02:33:54.304Z,50.99
2019-06-26T02:34:59.152Z,50.94
2019-06-26T02:36:03.986Z,50.97
2019-06-26T02:37:08.847Z,50.79
2019-06-26T02:38:13.338Z,50.71
2019-06-26T02:39:18.092Z,50.65
2019-06-26T02:40:22.291Z,50.63
2019-06-26T02:41:27.084Z,51.67
2019-06-26T02:42:31.442Z,51.67
2019-06-26T02:43:36.214Z,51.35
2019-06-26T02:44:53.455Z,51.14
2019-06-26T02:45:46.873Z,51.22
2019-06-26T02:46:51.026Z,51.24
2019-06-26T02:47:55.826Z,51.03
2019-06-26T02:49:00.018Z,50.80
2019-06-26T02:50:07.333Z,50.94
2019-06-26T02:51:11.512Z,50.76
2019-06-26T02:52:16.251Z,50.59
2019-06-26T02:53:20.480Z,51.57
2019-06-26T02:54:25.339Z,51.20
2019-06-26T02:55:29.488Z,51.53
2019-06-26T02:56:34.280Z,51.14
2019-06-26T02:57:38.727Z,51.40
2019-06-26T02:58:43.635Z,50.76
2019-06-26T02:59:47.816Z,50.69
2019-06-26T03:00:52.659Z,50.86
2019-06-26T03:01:56.832Z,50.89
2019-06-26T03:03:01.692Z,50.47
2019-06-26T03:04:05.900Z,50.43
2019-06-26T03:05:10.735Z,50.44
2019-06-26T03:06:14.976Z,51.36
2019-06-26T03:07:19.742Z,51.29
2019-06-26T03:08:23.917Z,51.06
2019-06-26T03:09:28.711Z,50.87
2019-06-26T03:10:33.383Z,50.70
2019-06-26T03:11:38.177Z,50.54
2019-06-26T03:12:42.419Z,50.82
2019-06-26T03:13:47.427Z,50.76
2019-06-26T03:15:07.485Z,50.92
2019-06-26T03:15:58.217Z,50.99
2019-06-26T03:17:02.389Z,51.19
2019-06-26T03:18:07.146Z,51.29
2019-06-26T03:19:11.412Z,51.62
2019-06-26T03:20:19.439Z,51.99
2019-06-26T03:21:23.728Z,51.87
2019-06-26T03:22:28.512Z,52.08
2019-06-26T03:23:32.697Z,52.33
2019-06-26T03:24:37.502Z,52.30
2019-06-26T03:25:42.140Z,52.25
2019-06-26T03:26:46.940Z,52.34
2019-06-26T03:27:51.109Z,52.37
2019-06-26T03:28:55.900Z,52.13
2019-06-26T03:30:00.069Z,52.28
2019-06-26T03:31:05.541Z,52.19
2019-06-26T03:32:09.745Z,52.38
2019-06-26T03:33:14.570Z,52.52
2019-06-26T03:34:18.787Z,52.56
2019-06-26T03:35:23.540Z,52.60
2019-06-26T03:36:27.722Z,52.77
2019-06-26T03:37:32.652Z,52.88
2019-06-26T03:38:36.822Z,52.97
2019-06-26T03:39:41.576Z,52.96
2019-06-26T03:40:45.761Z,53.10
2019-06-26T03:41:50.533Z,53.21
2019-06-26T03:42:54.734Z,53.02
2019-06-26T03:43:59.790Z,52.86
2019-06-26T03:45:24.118Z,52.71
2019-06-26T03:46:14.239Z,52.58
2019-06-26T03:47:18.605Z,52.58
2019-06-26T03:48:23.493Z,52.49
2019-06-26T03:49:27.666Z,52.99
2019-06-26T03:50:32.425Z,53.01
2019-06-26T03:51:36.591Z,53.15
2019-06-26T03:52:41.344Z,52.95
2019-06-26T03:53:45.670Z,52.99
2019-06-26T03:54:50.430Z,53.08
2019-06-26T03:55:54.708Z,53.25
2019-06-26T03:56:59.475Z,53.10
2019-06-26T03:58:03.656Z,52.97
2019-06-26T03:59:08.441Z,53.08
2019-06-26T04:00:13.595Z,53.04
2019-06-26T04:01:18.458Z,52.95
2019-06-26T04:02:23.150Z,53.14
2019-06-26T04:03:27.904Z,53.08
2019-06-26T04:04:32.076Z,53.11
2019-06-26T04:05:36.844Z,53.33
2019-06-26T04:06:41.043Z,53.46
2019-06-26T04:07:45.811Z,53.41
2019-06-26T04:08:49.979Z,53.45
2019-06-26T04:09:54.982Z,53.92
2019-06-26T04:10:59.148Z,53.68
2019-06-26T04:12:05.219Z,53.93
2019-06-26T04:13:09.345Z,54.00
2019-06-26T04:14:14.104Z,53.99
2019-06-26T04:15:18.271Z,53.82
2019-06-26T04:16:23.027Z,53.98
2019-06-26T04:17:27.408Z,54.10
2019-06-26T04:18:32.165Z,54.19
2019-06-26T04:19:36.692Z,54.21
2019-06-26T04:20:41.560Z,54.39
2019-06-26T04:21:45.736Z,54.32
2019-06-26T04:22:52.123Z,54.34
2019-06-26T04:23:56.356Z,54.28
2019-06-26T04:25:01.230Z,54.45
2019-06-26T04:26:05.397Z,54.79
2019-06-26T04:27:10.174Z,54.53
2019-06-26T04:28:14.369Z,54.68
2019-06-26T04:29:19.162Z,54.56
2019-06-26T04:30:23.379Z,54.65
2019-06-26T04:31:28.151Z,54.59
2019-06-26T04:32:32.312Z,54.52
2019-06-26T04:33:37.072Z,54.49
2019-06-26T04:34:41.478Z,54.44
2019-06-26T04:35:46.234Z,54.52
2019-06-26T04:36:51.510Z,54.68
2019-06-26T04:37:56.305Z,54.58
2019-06-26T04:39:00.519Z,54.49
2019-06-26T04:40:08.096Z,54.57
2019-06-26T04:41:12.262Z,54.57
2019-06-26T04:42:17.118Z,54.50
2019-06-26T04:43:21.237Z,54.54
2019-06-26T04:44:25.991Z,54.52
2019-06-26T04:45:30.193Z,54.59
2019-06-26T04:46:34.957Z,54.53
2019-06-26T04:47:39.128Z,54.49
2019-06-26T04:48:43.914Z,54.50
2019-06-26T04:49:48.114Z,54.43
2019-06-26T04:50:52.868Z,54.51
2019-06-26T04:51:57.176Z,54.40
2019-06-26T04:53:02.117Z,54.52
2019-06-26T04:54:06.325Z,54.65
2019-06-26T04:55:11.088Z,54.16
2019-06-26T04:56:15.253Z,53.84
2019-06-26T04:57:20.144Z,53.78
2019-06-26T04:58:24.336Z,53.74
2019-06-26T04:59:29.199Z,53.82
2019-06-26T05:00:33.387Z,53.85
2019-06-26T05:01:38.148Z,53.89
2019-06-26T05:02:43.294Z,53.98
2019-06-26T05:03:48.078Z,53.92
2019-06-26T05:04:52.264Z,54.19
2019-06-26T05:05:57.197Z,54.22
2019-06-26T05:07:01.400Z,54.24
2019-06-26T05:08:06.157Z,54.16
2019-06-26T05:09:10.339Z,54.10
2019-06-26T05:10:15.498Z,54.08
2019-06-26T05:11:19.662Z,54.14
2019-06-26T05:12:24.419Z,54.13
2019-06-26T05:13:28.600Z,54.14
2019-06-26T05:14:33.454Z,54.12
2019-06-26T05:15:37.627Z,54.08
2019-06-26T05:16:42.383Z,54.07
2019-06-26T05:17:46.556Z,53.95
2019-06-26T05:18:51.319Z,53.89
2019-06-26T05:19:55.510Z,53.98
2019-06-26T05:21:00.580Z,54.06
2019-06-26T05:22:04.916Z,54.20
2019-06-26T05:23:09.671Z,54.25
2019-06-26T05:24:14.049Z,54.34
2019-06-26T05:25:21.011Z,54.43
2019-06-26T05:26:25.252Z,54.49
2019-06-26T05:27:30.794Z,54.66
2019-06-26T05:28:35.384Z,54.64
2019-06-26T05:29:40.191Z,54.63
2019-06-26T05:30:44.525Z,54.70
2019-06-26T05:31:49.389Z,54.73
2019-06-26T05:32:53.904Z,54.69
2019-06-26T05:33:58.842Z,54.71
2019-06-26T05:35:03.496Z,54.72
2019-06-26T05:36:08.251Z,54.64
2019-06-26T05:37:12.455Z,54.81
2019-06-26T05:38:17.321Z,54.77
2019-06-26T05:39:21.555Z,54.90
2019-06-26T05:40:26.310Z,54.83
2019-06-26T05:41:30.480Z,54.79
2019-06-26T05:42:35.394Z,54.78
2019-06-26T05:43:39.573Z,54.78
2019-06-26T05:44:44.416Z,54.71
2019-06-26T05:45:48.596Z,54.60
2019-06-26T05:46:53.354Z,54.61
2019-06-26T05:47:58.010Z,54.33
2019-06-26T05:49:02.902Z,54.36
2019-06-26T05:50:07.935Z,53.73
2019-06-26T05:51:12.681Z,53.86
2019-06-26T05:52:16.902Z,53.65
2019-06-26T05:53:21.725Z,53.98
2019-06-26T05:54:25.940Z,53.86
2019-06-26T05:55:30.692Z,53.63
2019-06-26T05:56:34.863Z,53.59
2019-06-26T05:57:41.906Z,53.37
2019-06-26T05:58:45.505Z,53.14
2019-06-26T05:59:50.296Z,52.95
2019-06-26T06:00:54.455Z,53.01
2019-06-26T06:01:59.222Z,52.39
2019-06-26T06:03:03.397Z,52.36
2019-06-26T06:04:08.361Z,52.53
2019-06-26T06:05:12.583Z,52.40
2019-06-26T06:06:17.330Z,52.29
2019-06-26T06:07:21.493Z,51.77
2019-06-26T06:08:26.440Z,51.41
2019-06-26T06:09:30.621Z,51.94
2019-06-26T06:10:35.424Z,51.95
2019-06-26T06:11:40.685Z,51.83
2019-06-26T06:12:45.453Z,51.47
2019-06-26T06:13:49.725Z,51.13
2019-06-26T06:14:54.584Z,51.57
2019-06-26T06:15:58.799Z,50.94
2019-06-26T06:17:03.531Z,51.36
2019-06-26T06:18:07.763Z,51.66
2019-06-26T06:19:12.517Z,51.68
2019-06-26T06:20:19.974Z,51.97
2019-06-26T06:21:24.925Z,51.17
2019-06-26T06:22:29.108Z,50.61
2019-06-26T06:23:33.876Z,50.67
2019-06-26T06:24:38.126Z,51.14
2019-06-26T06:25:42.889Z,50.89
2019-06-26T06:26:47.102Z,51.10
2019-06-26T06:27:51.855Z,50.96
2019-06-26T06:28:56.040Z,50.00
2019-06-26T06:30:00.790Z,50.63
2019-06-26T06:31:04.965Z,50.57
2019-06-26T06:32:09.774Z,50.58
2019-06-26T06:33:13.943Z,50.50
2019-06-26T06:34:18.762Z,49.79
2019-06-26T06:35:22.945Z,50.26
2019-06-26T06:36:27.700Z,49.90
2019-06-26T06:37:31.902Z,49.38
2019-06-26T06:38:37.623Z,49.77
2019-06-26T06:39:41.829Z,49.33
2019-06-26T06:40:46.632Z,49.35
2019-06-26T06:41:50.806Z,49.17
2019-06-26T06:42:55.595Z,48.89
2019-06-26T06:43:59.763Z,48.91
2019-06-26T06:45:07.244Z,48.62
2019-06-26T06:46:11.407Z,49.29
2019-06-26T06:47:16.159Z,48.94
2019-06-26T06:48:20.446Z,49.05
2019-06-26T06:49:25.299Z,49.16
2019-06-26T06:50:29.529Z,49.10
2019-06-26T06:51:34.288Z,49.23
2019-06-26T06:52:38.441Z,48.24
2019-06-26T06:53:43.288Z,48.14
2019-06-26T06:54:48.480Z,48.97
2019-06-26T06:55:53.314Z,48.64
2019-06-26T06:56:57.497Z,48.81
2019-06-26T06:58:02.362Z,48.32
2019-06-26T06:59:06.624Z,47.80
2019-06-26T07:00:12.444Z,48.06
2019-06-26T07:01:16.617Z,48.03
2019-06-26T07:02:21.395Z,48.06
2019-06-26T07:03:25.562Z,48.02
2019-06-26T07:04:30.375Z,47.97
2019-06-26T07:05:34.547Z,47.99
2019-06-26T07:06:39.331Z,47.86
2019-06-26T07:07:43.502Z,47.42
2019-06-26T07:08:48.259Z,47.52
2019-06-26T07:09:52.453Z,47.59
2019-06-26T07:10:57.575Z,47.26
2019-06-26T07:12:01.758Z,47.64
2019-06-26T07:13:06.545Z,46.78
2019-06-26T07:14:10.712Z,46.98
2019-06-26T07:15:17.110Z,47.01
2019-06-26T07:16:21.289Z,47.13
2019-06-26T07:17:26.070Z,47.29
2019-06-26T07:18:30.254Z,46.96
2019-06-26T07:19:35.028Z,46.99
2019-06-26T07:20:39.244Z,46.99
2019-06-26T07:21:44.079Z,46.47
2019-06-26T07:22:48.246Z,46.08
2019-06-26T07:23:52.995Z,46.14
2019-06-26T07:24:57.187Z,45.63
2019-06-26T07:26:02.048Z,45.98
2019-06-26T07:27:06.266Z,46.36
2019-06-26T07:28:11.119Z,45.76
2019-06-26T07:29:15.426Z,45.38
2019-06-26T07:30:20.177Z,45.53
2019-06-26T07:31:24.344Z,45.94
2019-06-26T07:32:29.210Z,45.79
2019-06-26T07:33:33.883Z,46.21
2019-06-26T07:34:38.627Z,45.79
2019-06-26T07:35:42.802Z,46.05
2019-06-26T07:36:47.619Z,46.41
2019-06-26T07:37:51.875Z,45.65
2019-06-26T07:38:56.669Z,45.38
2019-06-26T07:40:02.375Z,45.79
2019-06-26T07:41:07.360Z,44.91
2019-06-26T07:42:11.568Z,45.68
2019-06-26T07:43:16.849Z,45.48
2019-06-26T07:44:21.145Z,45.26
2019-06-26T07:45:25.899Z,45.01
2019-06-26T07:46:30.103Z,45.08
2019-06-26T07:47:42.989Z,45.03
2019-06-26T07:48:41.118Z,45.06
2019-06-26T07:49:45.887Z,45.12
2019-06-26T07:50:50.062Z,44.98
2019-06-26T07:51:54.825Z,44.59
2019-06-26T07:52:59.305Z,44.49
2019-06-26T07:54:04.098Z,43.98
2019-06-26T07:55:11.801Z,44.22
2019-06-26T07:56:16.138Z,44.17
2019-06-26T07:57:20.331Z,44.17
2019-06-26T07:58:25.171Z,43.94
2019-06-26T07:59:29.378Z,44.25
2019-06-26T08:00:34.159Z,43.28
2019-06-26T08:01:38.307Z,43.14
2019-06-26T08:02:43.142Z,43.11
2019-06-26T08:03:47.550Z,42.96
2019-06-26T08:04:52.313Z,43.32
2019-06-26T08:05:56.479Z,43.13
2019-06-26T08:07:01.400Z,42.99
2019-06-26T08:08:05.875Z,42.73
2019-06-26T08:09:10.663Z,42.84
2019-06-26T08:10:15.727Z,42.46
2019-06-26T08:11:20.481Z,41.93
2019-06-26T08:12:24.655Z,40.95
2019-06-26T08:13:29.761Z,41.10
2019-06-26T08:14:33.955Z,41.27
2019-06-26T08:15:38.740Z,41.31
2019-06-26T08:16:42.978Z,41.03
2019-06-26T08:17:59.852Z,41.39
2019-06-26T08:18:53.680Z,40.97
2019-06-26T08:19:58.444Z,40.79
2019-06-26T08:21:11.978Z,40.31
2019-06-26T08:22:09.181Z,40.49
2019-06-26T08:23:13.345Z,40.69
2019-06-26T08:24:18.095Z,39.91
2019-06-26T08:25:22.290Z,40.02
2019-06-26T08:26:27.391Z,40.37
2019-06-26T08:27:31.685Z,39.70
2019-06-26T08:28:36.436Z,40.51
2019-06-26T08:29:40.916Z,40.35
2019-06-26T08:30:45.790Z,40.32
2019-06-26T08:31:50.013Z,40.17
2019-06-26T08:32:55.737Z,40.07
2019-06-26T08:33:59.930Z,40.13
2019-06-26T08:35:08.041Z,40.42
2019-06-26T08:36:12.214Z,40.18
2019-06-26T08:37:16.996Z,39.27
2019-06-26T08:38:21.192Z,39.96
2019-06-26T08:39:25.954Z,39.91
2019-06-26T08:40:30.137Z,39.69
2019-06-26T08:41:34.882Z,39.75
2019-06-26T08:42:39.140Z,39.56
2019-06-26T08:43:43.920Z,39.77
2019-06-26T08:44:48.082Z,40.18
2019-06-26T08:45:52.846Z,40.07
2019-06-26T08:46:57.154Z,39.87
2019-06-26T08:48:16.890Z,39.90
2019-06-26T08:49:24.283Z,39.57
2019-06-26T08:50:14.821Z,39.51
2019-06-26T08:51:18.991Z,39.85
2019-06-26T08:52:23.737Z,39.52
2019-06-26T08:53:28.148Z,39.84
2019-06-26T08:54:32.916Z,39.75
2019-06-26T08:55:37.089Z,39.49
2019-06-26T08:56:41.851Z,38.75
2019-06-26T08:57:46.098Z,38.58
2019-06-26T08:58:50.915Z,38.85
2019-06-26T08:59:55.545Z,38.37
2019-06-26T09:01:00.332Z,38.39
2019-06-26T09:02:04.578Z,38.10
2019-06-26T09:03:09.394Z,37.82
2019-06-26T09:04:13.660Z,37.61
2019-06-26T09:05:18.415Z,37.02
2019-06-26T09:06:22.695Z,36.72
2019-06-26T09:07:27.616Z,36.55
2019-06-26T09:08:32.577Z,36.96
2019-06-26T09:09:37.414Z,36.53
2019-06-26T09:10:44.824Z,36.61
2019-06-26T09:11:48.132Z,35.83
2019-06-26T09:12:52.300Z,36.40
2019-06-26T09:13:58.292Z,36.56
2019-06-26T09:15:02.499Z,36.69
2019-06-26T09:16:07.255Z,36.46
2019-06-26T09:17:11.886Z,36.77
2019-06-26T09:18:34.075Z,37.02
2019-06-26T09:19:23.875Z,36.79
2019-06-26T09:20:34.502Z,37.00
2019-06-26T09:21:38.619Z,36.78
2019-06-26T09:22:43.372Z,36.71
2019-06-26T09:23:47.546Z,37.00
2019-06-26T09:24:52.369Z,36.46
2019-06-26T09:25:56.722Z,36.70
2019-06-26T09:27:01.436Z,36.15
2019-06-26T09:28:05.763Z,36.17
2019-06-26T09:29:10.514Z,36.00
2019-06-26T09:30:14.741Z,36.38
2019-06-26T09:31:19.481Z,35.67
2019-06-26T09:32:23.649Z,35.67
2019-06-26T09:33:32.159Z,35.62
2019-06-26T09:34:34.268Z,36.20
2019-06-26T09:35:39.085Z,36.54
2019-06-26T09:36:43.248Z,35.49
2019-06-26T09:37:47.996Z,35.54
2019-06-26T09:38:52.165Z,36.10
2019-06-26T09:39:56.941Z,35.30
2019-06-26T09:41:01.392Z,35.26
2019-06-26T09:42:06.150Z,34.88
2019-06-26T09:43:10.375Z,35.66
2019-06-26T09:44:15.131Z,35.49
2019-06-26T09:45:19.726Z,35.45
2019-06-26T09:46:24.794Z,35.67
2019-06-26T09:47:31.070Z,35.54
2019-06-26T09:48:51.519Z,35.28
2019-06-26T09:49:42.254Z,35.15
2019-06-26T09:50:47.037Z,34.94
2019-06-26T09:51:51.251Z,35.30
2019-06-26T09:52:56.254Z,35.82
2019-06-26T09:54:00.422Z,35.24
2019-06-26T09:55:06.063Z,34.94
2019-06-26T09:56:10.241Z,34.87
2019-06-26T09:57:15.027Z,35.08
2019-06-26T09:58:19.199Z,35.64
2019-06-26T09:59:23.949Z,35.65
2019-06-26T10:00:28.177Z,35.48
2019-06-26T10:01:32.879Z,35.17
2019-06-26T10:02:37.101Z,35.13
2019-06-26T10:03:45.222Z,35.39
2019-06-26T10:04:48.687Z,34.81
2019-06-26T10:05:53.493Z,35.05
2019-06-26T10:06:57.609Z,34.93
2019-06-26T10:08:02.550Z,34.62
2019-06-26T10:09:08.061Z,34.22
2019-06-26T10:10:13.065Z,34.35
2019-06-26T10:11:17.226Z,34.28
2019-06-26T10:12:21.982Z,34.71
2019-06-26T10:13:26.190Z,34.72
2019-06-26T10:14:46.643Z,34.72
2019-06-26T10:15:36.826Z,34.40
2019-06-26T10:16:41.598Z,34.14
2019-06-26T10:17:45.746Z,34.18
2019-06-26T10:18:50.541Z,34.09
2019-06-26T10:19:54.702Z,34.18
2019-06-26T10:20:59.488Z,34.28
2019-06-26T10:22:04.431Z,33.93
2019-06-26T10:23:09.217Z,33.83
2019-06-26T10:24:13.536Z,34.18
2019-06-26T10:25:18.288Z,34.65
2019-06-26T10:26:22.455Z,34.39
2019-06-26T10:27:27.210Z,34.44
2019-06-26T10:28:31.385Z,34.28
2019-06-26T10:29:36.205Z,33.62
2019-06-26T10:30:40.467Z,33.77
2019-06-26T10:31:45.360Z,33.89
2019-06-26T10:32:49.610Z,34.15
2019-06-26T10:33:54.390Z,34.32
2019-06-26T10:34:58.847Z,33.74
2019-06-26T10:36:03.631Z,33.96
2019-06-26T10:37:07.803Z,33.74
2019-06-26T10:38:12.571Z,33.52
2019-06-26T10:39:16.748Z,33.79
2019-06-26T10:40:21.552Z,33.52
2019-06-26T10:41:25.716Z,34.06
2019-06-26T10:42:30.478Z,34.15
2019-06-26T10:43:34.771Z,33.68
2019-06-26T10:44:39.532Z,33.18
2019-06-26T10:45:43.695Z,32.99
2019-06-26T10:46:49.434Z,32.87
2019-06-26T10:47:53.638Z,33.46
2019-06-26T10:48:58.441Z,33.65
2019-06-26T10:50:03.015Z,33.39
2019-06-26T10:51:07.773Z,32.72
2019-06-26T10:52:11.967Z,32.79
2019-06-26T10:53:16.748Z,32.85
2019-06-26T10:54:21.020Z,32.47
2019-06-26T10:55:25.931Z,32.99
2019-06-26T10:56:30.130Z,33.37
2019-06-26T10:57:34.892Z,33.48
2019-06-26T10:58:39.199Z,33.69
2019-06-26T10:59:43.962Z,33.70
2019-06-26T11:00:48.356Z,33.50
2019-06-26T11:01:53.261Z,33.15
2019-06-26T11:02:57.440Z,32.57
2019-06-26T11:04:02.203Z,32.08
2019-06-26T11:05:08.288Z,32.48
2019-06-26T11:06:13.093Z,32.96
2019-06-26T11:07:17.316Z,33.05
2019-06-26T11:08:22.123Z,33.26
2019-06-26T11:09:26.290Z,33.22
2019-06-26T11:10:31.260Z,31.96
2019-06-26T11:11:35.537Z,32.41
2019-06-26T11:12:40.365Z,32.02
2019-06-26T11:13:44.531Z,31.45
2019-06-26T11:14:49.284Z,31.29
2019-06-26T11:15:53.663Z,31.82
2019-06-26T11:16:58.438Z,30.28
2019-06-26T11:18:02.692Z,30.38
2019-06-26T11:19:07.589Z,30.48
2019-06-26T11:20:12.032Z,29.79
2019-06-26T11:21:18.462Z,29.98
2019-06-26T11:22:22.648Z,30.01
2019-06-26T11:23:27.475Z,30.40
2019-06-26T11:24:31.648Z,30.51
2019-06-26T11:25:36.411Z,30.32
2019-06-26T11:26:40.606Z,30.53
2019-06-26T11:27:45.419Z,30.62
2019-06-26T11:28:49.586Z,30.48
2019-06-26T11:29:54.409Z,30.29
2019-06-26T11:30:58.585Z,30.04
2019-06-26T11:32:03.403Z,30.16
2019-06-26T11:33:07.681Z,29.70
2019-06-26T11:34:12.465Z,29.18
2019-06-26T11:35:16.635Z,29.42
2019-06-26T11:36:21.493Z,28.65
2019-06-26T11:37:25.818Z,29.20
2019-06-26T11:38:30.609Z,28.27
2019-06-26T11:39:34.848Z,28.53
2019-06-26T11:40:39.721Z,27.36
2019-06-26T11:41:43.931Z,28.12
2019-06-26T11:42:48.682Z,28.05
2019-06-26T11:43:53.280Z,28.35
2019-06-26T11:45:03.044Z,28.82
2019-06-26T11:46:07.249Z,28.47
2019-06-26T11:47:11.999Z,28.53
2019-06-26T11:48:16.293Z,28.54
2019-06-26T11:49:21.202Z,28.51
2019-06-26T11:50:25.474Z,28.62
2019-06-26T11:51:30.234Z,28.57
2019-06-26T11:52:35.010Z,28.57
2019-06-26T11:53:39.854Z,28.14
2019-06-26T11:54:44.073Z,28.09
2019-06-26T11:55:48.804Z,28.27
2019-06-26T11:56:52.995Z,28.59
2019-06-26T11:57:57.744Z,28.48
2019-06-26T11:59:01.943Z,28.01
2019-06-26T12:00:12.059Z,27.31
2019-06-26T12:01:15.641Z,27.53
2019-06-26T12:02:20.056Z,27.69
2019-06-26T12:03:24.489Z,27.65
2019-06-26T12:04:29.034Z,27.74
2019-06-26T12:05:33.401Z,28.06
2019-06-26T12:06:38.161Z,28.03
2019-06-26T12:07:42.523Z,27.81
2019-06-26T12:08:47.123Z,28.01
2019-06-26T12:09:51.584Z,27.33
2019-06-26T12:10:56.246Z,27.53
2019-06-26T12:12:00.981Z,26.90
2019-06-26T12:13:05.600Z,26.80
2019-06-26T12:14:09.982Z,27.21
2019-06-26T12:15:15.071Z,27.08
2019-06-26T12:16:19.446Z,27.28
2019-06-26T12:17:24.077Z,27.06
2019-06-26T12:18:28.449Z,27.18
2019-06-26T12:19:33.022Z,26.71
2019-06-26T12:20:37.363Z,26.55
2019-06-26T12:21:41.943Z,26.50
2019-06-26T12:22:47.433Z,26.48
2019-06-26T12:23:53.047Z,26.68
2019-06-26T12:24:57.436Z,26.26
2019-06-26T12:26:01.983Z,26.77
2019-06-26T12:27:06.438Z,27.08
2019-06-26T12:28:11.029Z,27.38
2019-06-26T12:29:15.396Z,27.61
2019-06-26T12:30:19.958Z,27.61
2019-06-26T12:31:24.601Z,26.97
2019-06-26T12:32:29.426Z,26.94
2019-06-26T12:33:33.858Z,26.74
2019-06-26T12:34:38.420Z,26.09
2019-06-26T12:35:42.861Z,26.14
2019-06-26T12:36:48.427Z,26.30
2019-06-26T12:37:52.927Z,26.21
2019-06-26T12:38:57.548Z,25.92
2019-06-26T12:40:03.263Z,25.86
2019-06-26T12:41:08.038Z,25.72
2019-06-26T12:42:12.481Z,26.00
2019-06-26T12:43:17.057Z,25.95
2019-06-26T12:44:21.480Z,26.03
2019-06-26T12:45:26.036Z,26.17
2019-06-26T12:46:30.490Z,25.87
2019-06-26T12:47:35.078Z,25.82
2019-06-26T12:48:39.548Z,25.74
2019-06-26T12:49:44.082Z,25.97
2019-06-26T12:50:48.443Z,26.18
2019-06-26T12:51:53.026Z,25.86
2019-06-26T12:52:57.415Z,25.63
2019-06-26T12:54:02.004Z,25.64
2019-06-26T12:55:06.772Z,25.71
2019-06-26T12:56:11.325Z,25.78
2019-06-26T12:57:15.716Z,25.40
2019-06-26T12:58:20.406Z,25.20
2019-06-26T12:59:24.859Z,24.30
2019-06-26T13:00:29.579Z,24.30
2019-06-26T13:01:33.954Z,24.93
2019-06-26T13:02:38.503Z,24.88
2019-06-26T13:03:42.877Z,24.63
2019-06-26T13:04:47.455Z,24.26
2019-06-26T13:05:51.822Z,24.61
2019-06-26T13:06:58.925Z,24.96
2019-06-26T13:08:02.544Z,24.91
2019-06-26T13:09:08.407Z,24.89
2019-06-26T13:10:13.151Z,24.74
2019-06-26T13:11:17.687Z,24.37
2019-06-26T13:12:22.175Z,23.94
2019-06-26T13:13:26.792Z,24.26
2019-06-26T13:14:31.167Z,24.21
2019-06-26T13:15:35.752Z,24.67
2019-06-26T13:16:40.258Z,24.73
2019-06-26T13:17:44.851Z,25.00
2019-06-26T13:18:49.223Z,25.09
2019-06-26T13:19:53.756Z,25.33
2019-06-26T13:20:58.223Z,25.56
2019-06-26T13:22:03.033Z,25.37
2019-06-26T13:23:07.448Z,25.07
2019-06-26T13:24:12.011Z,24.32
2019-06-26T13:25:16.439Z,23.86
2019-06-26T13:26:21.139Z,24.37
2019-06-26T13:27:25.466Z,24.83
2019-06-26T13:28:30.372Z,25.11
2019-06-26T13:29:34.996Z,25.23
2019-06-26T13:30:39.735Z,25.11
2019-06-26T13:31:44.252Z,24.99
2019-06-26T13:32:48.872Z,24.70
2019-06-26T13:33:54.215Z,24.48
2019-06-26T13:34:59.867Z,24.00
2019-06-26T13:36:05.128Z,24.65
2019-06-26T13:37:09.732Z,24.57
2019-06-26T13:38:14.134Z,24.50
2019-06-26T13:39:18.732Z,24.22
2019-06-26T13:40:23.083Z,23.96
2019-06-26T13:41:27.634Z,23.64
2019-06-26T13:42:32.046Z,23.77
2019-06-26T13:43:37.569Z,23.22
2019-06-26T13:44:41.981Z,23.46
2019-06-26T13:45:47.498Z,24.07
2019-06-26T13:46:51.877Z,24.46
2019-06-26T13:47:56.509Z,24.89
2019-06-26T13:49:00.932Z,25.00
2019-06-26T13:50:07.593Z,24.97
2019-06-26T13:51:11.906Z,24.87
2019-06-26T13:52:16.474Z,25.01
2019-06-26T13:53:20.869Z,24.92